Time;durP1;ratioP1;P1;durP2;ratioP2;P2;SDS_P1;SDS_P2;PMS_P1;PMS_P2;Temp;Humidity;BMP_temperature;BMP_pressure;BME280_temperature;BME280_humidity;BME280_pressure;Samples;Min_cycle;Max_cycle;Signal;HPM_P1;HPM_P2
2023/07/17 00:00:01;;;;;;;4.80;3.90;;;16.10;99.90;;;;;;486089;244;28786;-77
2023/07/17 00:02:02;;;;;;;6.33;4.40;;;16.10;99.90;;;;;;486110;244;28801;-78
2023/07/17 00:04:04;;;;;;;5.90;4.40;;;16.10;99.90;;;;;;486047;244;28710;-81
2023/07/17 00:06:04;;;;;;;6.37;4.07;;;16.10;99.90;;;;;;486127;244;28792;-78
2023/07/17 00:08:06;;;;;;;5.80;3.90;;;16.10;99.90;;;;;;486073;244;28798;-81
2023/07/17 00:10:07;;;;;;;5.23;3.60;;;16.10;99.90;;;;;;486049;244;28845;-79
2023/07/17 00:12:08;;;;;;;6.50;3.90;;;16.10;99.90;;;;;;486044;244;30484;-80
2023/07/17 00:14:09;;;;;;;7.40;4.10;;;16.00;99.90;;;;;;486096;243;29273;-78
2023/07/17 00:16:11;;;;;;;6.83;4.10;;;16.00;99.90;;;;;;486105;244;29208;-77
2023/07/17 00:18:13;;;;;;;6.40;4.20;;;16.00;99.90;;;;;;486073;242;29168;-80
2023/07/17 00:20:13;;;;;;;6.83;4.30;;;16.00;99.90;;;;;;486026;244;28833;-81
2023/07/17 00:22:15;;;;;;;7.27;4.57;;;15.90;99.90;;;;;;485995;244;28756;-81
2023/07/17 00:24:16;;;;;;;7.77;4.17;;;15.80;99.90;;;;;;486110;244;28727;-81
2023/07/17 00:26:17;;;;;;;8.40;4.27;;;15.80;99.90;;;;;;486149;244;28830;-81
2023/07/17 00:28:18;;;;;;;10.17;4.13;;;15.80;99.90;;;;;;486120;244;28699;-81
2023/07/17 00:30:19;;;;;;;9.13;3.77;;;15.80;99.90;;;;;;486160;244;28777;-80
2023/07/17 00:32:21;;;;;;;5.13;3.50;;;15.90;99.90;;;;;;486104;244;28787;-82
2023/07/17 00:34:22;;;;;;;8.30;4.00;;;15.90;99.90;;;;;;486067;244;28829;-81
2023/07/17 00:36:23;;;;;;;6.10;4.03;;;15.80;99.90;;;;;;486106;244;29342;-78
2023/07/17 00:38:24;;;;;;;6.27;4.23;;;15.80;99.90;;;;;;486058;244;29369;-80
2023/07/17 00:40:26;;;;;;;5.83;3.80;;;15.80;99.90;;;;;;486049;244;29235;-79
2023/07/17 00:42:27;;;;;;;8.50;4.27;;;15.70;99.90;;;;;;486033;244;29916;-81
2023/07/17 00:44:28;;;;;;;7.10;4.17;;;15.70;99.90;;;;;;486072;244;28728;-81
2023/07/17 00:46:30;;;;;;;6.00;4.00;;;15.70;99.90;;;;;;486077;244;28769;-80
2023/07/17 00:48:31;;;;;;;8.87;4.03;;;15.60;99.90;;;;;;486056;244;28704;-80
2023/07/17 00:50:32;;;;;;;4.30;3.57;;;15.60;99.90;;;;;;486067;244;28754;-79
2023/07/17 00:52:33;;;;;;;7.90;5.13;;;15.60;99.90;;;;;;486053;244;28737;-80
2023/07/17 00:54:35;;;;;;;6.13;3.80;;;15.60;99.90;;;;;;486106;244;28786;-79
2023/07/17 00:56:36;;;;;;;6.50;4.33;;;15.50;99.90;;;;;;486108;244;28749;-77
2023/07/17 00:58:37;;;;;;;6.40;4.20;;;15.50;99.90;;;;;;486133;243;28764;-81
2023/07/17 01:00:38;;;;;;;7.53;4.60;;;15.50;99.90;;;;;;486097;244;28764;-80
2023/07/17 01:02:39;;;;;;;9.40;4.10;;;15.40;99.90;;;;;;486149;244;29377;-81
2023/07/17 01:04:41;;;;;;;6.90;4.53;;;15.40;99.90;;;;;;486077;244;29179;-81
2023/07/17 01:06:42;;;;;;;6.03;4.30;;;15.40;99.90;;;;;;486134;244;29225;-79
2023/07/17 01:08:43;;;;;;;10.13;4.73;;;15.30;99.90;;;;;;486032;244;28774;-81
2023/07/17 01:10:44;;;;;;;7.23;3.90;;;15.30;99.90;;;;;;486024;244;28754;-80
2023/07/17 01:12:46;;;;;;;6.43;3.63;;;15.30;99.90;;;;;;486079;244;28798;-79
2023/07/17 01:14:47;;;;;;;6.33;3.47;;;15.30;99.90;;;;;;486099;244;28825;-82
2023/07/17 01:16:48;;;;;;;6.83;4.07;;;15.30;99.90;;;;;;486143;244;28817;-79
2023/07/17 01:18:49;;;;;;;5.87;3.97;;;15.30;99.90;;;;;;486072;244;28705;-79
2023/07/17 01:20:51;;;;;;;6.00;3.83;;;15.40;99.90;;;;;;486117;244;28753;-79
2023/07/17 01:22:52;;;;;;;6.80;3.90;;;15.40;99.90;;;;;;486071;244;28851;-79
2023/07/17 01:24:53;;;;;;;6.70;3.93;;;15.40;99.90;;;;;;486053;244;28722;-81
2023/07/17 01:26:54;;;;;;;4.93;4.20;;;15.40;99.90;;;;;;486120;244;29225;-78
2023/07/17 01:28:56;;;;;;;6.50;4.10;;;15.30;99.90;;;;;;486082;244;29172;-81
2023/07/17 01:30:57;;;;;;;7.93;4.73;;;15.30;99.90;;;;;;486133;244;29274;-79
2023/07/17 01:32:58;;;;;;;7.23;4.33;;;15.30;99.90;;;;;;486105;244;28758;-78
2023/07/17 01:34:59;;;;;;;19.37;4.13;;;15.30;99.90;;;;;;486047;244;28796;-80
2023/07/17 01:37:01;;;;;;;6.10;4.20;;;15.30;99.90;;;;;;486063;244;28786;-79
2023/07/17 01:39:02;;;;;;;6.80;3.93;;;15.30;99.90;;;;;;486099;244;28713;-80
2023/07/17 01:41:03;;;;;;;5.83;4.07;;;15.10;99.90;;;;;;486084;244;28826;-79
2023/07/17 01:43:04;;;;;;;5.07;4.13;;;15.10;99.90;;;;;;486134;244;28832;-78
2023/07/17 01:45:06;;;;;;;5.23;4.07;;;15.10;99.90;;;;;;486122;244;28714;-79
2023/07/17 01:47:07;;;;;;;7.80;4.13;;;15.10;99.90;;;;;;486098;244;28776;-80
2023/07/17 01:49:08;;;;;;;6.00;3.90;;;15.00;99.90;;;;;;486155;244;28707;-84
2023/07/17 01:51:09;;;;;;;6.00;3.30;;;15.00;99.90;;;;;;486078;244;29252;-83
2023/07/17 01:53:11;;;;;;;5.50;3.47;;;15.00;99.90;;;;;;486104;244;29329;-79
2023/07/17 01:55:12;;;;;;;6.20;4.20;;;15.00;99.90;;;;;;486065;244;29177;-82
2023/07/17 01:57:13;;;;;;;5.87;4.00;;;15.00;99.90;;;;;;486057;244;28830;-79
2023/07/17 01:59:14;;;;;;;7.40;4.77;;;15.00;99.90;;;;;;486052;244;28768;-82
2023/07/17 02:01:16;;;;;;;6.93;4.13;;;14.90;99.90;;;;;;486107;244;28736;-81
2023/07/17 02:03:17;;;;;;;6.03;3.63;;;14.90;99.90;;;;;;486077;244;28853;-78
2023/07/17 02:05:18;;;;;;;6.13;4.10;;;14.90;99.90;;;;;;486060;244;28715;-80
2023/07/17 02:07:19;;;;;;;6.30;3.87;;;14.90;99.90;;;;;;486059;244;28749;-80
2023/07/17 02:09:21;;;;;;;6.33;4.40;;;14.90;99.90;;;;;;486060;244;28736;-81
2023/07/17 02:11:26;;;;;;;8.00;4.03;;;14.80;99.90;;;;;;486091;244;28797;-80
2023/07/17 02:13:23;;;;;;;7.40;4.97;;;14.70;99.90;;;;;;485875;244;28755;-80
2023/07/17 02:15:24;;;;;;;5.73;4.10;;;14.50;99.90;;;;;;486146;244;29191;-79
2023/07/17 02:17:26;;;;;;;6.80;4.27;;;14.40;99.90;;;;;;486062;244;29328;-79
2023/07/17 02:19:27;;;;;;;4.17;3.77;;;14.50;99.90;;;;;;486073;244;30067;-79
2023/07/17 02:21:28;;;;;;;5.50;4.17;;;14.50;99.90;;;;;;486070;244;29151;-80
2023/07/17 02:23:29;;;;;;;5.50;3.80;;;14.60;99.90;;;;;;486141;244;28749;-78
2023/07/17 02:25:31;;;;;;;7.87;3.97;;;14.60;99.90;;;;;;486062;244;28780;-79
2023/07/17 02:27:32;;;;;;;5.67;3.87;;;14.60;99.90;;;;;;486113;244;28818;-77
2023/07/17 02:29:33;;;;;;;7.37;4.27;;;14.70;99.90;;;;;;486027;244;28736;-80
2023/07/17 02:31:34;;;;;;;6.80;3.80;;;14.70;99.90;;;;;;486077;244;28779;-81
2023/07/17 02:33:36;;;;;;;5.87;3.80;;;14.70;99.90;;;;;;486056;244;28810;-80
2023/07/17 02:35:37;;;;;;;5.57;4.00;;;14.60;99.90;;;;;;486010;244;28743;-80
2023/07/17 02:37:38;;;;;;;7.17;4.07;;;14.60;99.90;;;;;;486034;244;28772;-78
2023/07/17 02:39:40;;;;;;;6.97;4.13;;;14.60;99.90;;;;;;486065;244;28793;-79
2023/07/17 02:41:41;;;;;;;7.43;4.00;;;14.50;99.90;;;;;;486060;244;29154;-78
2023/07/17 02:43:42;;;;;;;4.70;4.20;;;14.50;99.90;;;;;;486191;244;29243;-78
2023/07/17 02:45:43;;;;;;;7.83;4.57;;;14.50;99.90;;;;;;486133;244;29166;-79
2023/07/17 02:47:44;;;;;;;5.80;4.20;;;14.40;99.90;;;;;;486111;244;28750;-82
2023/07/17 02:49:46;;;;;;;5.70;4.33;;;14.30;99.90;;;;;;486067;244;28823;-77
2023/07/17 02:51:47;;;;;;;5.10;3.90;;;14.40;99.90;;;;;;486125;244;28748;-79
2023/07/17 02:53:48;;;;;;;5.33;3.97;;;14.40;99.90;;;;;;486108;244;28825;-77
2023/07/17 02:55:49;;;;;;;6.60;4.50;;;14.40;99.90;;;;;;486063;244;28764;-79
2023/07/17 02:57:51;;;;;;;7.93;4.87;;;14.40;99.90;;;;;;485851;244;28745;-79
2023/07/17 02:59:54;;;;;;;6.70;4.13;;;14.30;99.90;;;;;;485998;244;28771;-77
2023/07/17 03:01:53;;;;;;;4.20;3.57;;;14.30;99.90;;;;;;485927;244;28804;-81
2023/07/17 03:03:54;;;;;;;7.97;4.60;;;14.30;99.90;;;;;;486021;244;28761;-80
2023/07/17 03:05:56;;;;;;;8.47;4.93;;;14.20;99.90;;;;;;486038;244;30286;-79
2023/07/17 03:07:57;;;;;;;5.93;4.67;;;14.20;99.90;;;;;;486132;244;29320;-79
2023/07/17 03:09:58;;;;;;;7.03;4.20;;;14.20;99.90;;;;;;486069;244;29250;-78
2023/07/17 03:11:59;;;;;;;8.07;4.50;;;14.20;99.90;;;;;;486029;244;29181;-80
2023/07/17 03:14:01;;;;;;;6.70;3.80;;;14.10;99.90;;;;;;486026;244;28748;-80
2023/07/17 03:16:02;;;;;;;7.33;4.73;;;14.10;99.90;;;;;;485995;244;28756;-81
2023/07/17 03:18:03;;;;;;;9.83;5.07;;;14.20;99.90;;;;;;486060;244;28724;-80
2023/07/17 03:20:06;;;;;;;12.60;5.23;;;14.10;99.90;;;;;;486149;243;28851;-77
2023/07/17 03:22:06;;;;;;;4.63;4.10;;;14.10;99.90;;;;;;486070;244;28793;-81
2023/07/17 03:24:07;;;;;;;5.20;4.03;;;14.10;99.90;;;;;;486042;244;28752;-80
2023/07/17 03:26:08;;;;;;;5.73;4.07;;;14.10;99.90;;;;;;486029;244;28753;-79
2023/07/17 03:28:10;;;;;;;9.90;5.10;;;14.20;99.90;;;;;;486054;244;28801;-79
2023/07/17 03:30:11;;;;;;;6.03;3.90;;;14.20;99.90;;;;;;486095;244;28752;-78
2023/07/17 03:32:12;;;;;;;10.77;4.27;;;14.20;99.90;;;;;;486125;244;29271;-79
2023/07/17 03:34:13;;;;;;;5.23;4.27;;;14.10;99.90;;;;;;486126;244;29321;-78
2023/07/17 03:36:15;;;;;;;6.47;4.47;;;14.20;99.90;;;;;;486053;244;29321;-79
2023/07/17 03:38:16;;;;;;;8.30;4.37;;;14.20;99.90;;;;;;486202;244;28724;-79
2023/07/17 03:40:17;;;;;;;7.53;4.43;;;14.20;99.90;;;;;;486068;244;28824;-77
2023/07/17 03:42:18;;;;;;;4.13;3.73;;;14.20;99.90;;;;;;486085;244;28712;-80
2023/07/17 03:44:20;;;;;;;7.20;4.17;;;14.20;99.90;;;;;;486110;244;28768;-79
2023/07/17 03:46:21;;;;;;;6.97;4.17;;;14.30;99.90;;;;;;486070;244;29318;-80
2023/07/17 03:48:22;;;;;;;6.77;4.57;;;14.20;99.90;;;;;;486135;244;29162;-79
2023/07/17 03:50:23;;;;;;;5.43;4.10;;;14.20;99.90;;;;;;486099;243;29331;-79
2023/07/17 03:52:25;;;;;;;4.63;4.00;;;14.10;99.90;;;;;;486061;244;29314;-79
2023/07/17 03:54:26;;;;;;;7.47;4.50;;;14.10;99.90;;;;;;486058;244;28841;-80
2023/07/17 03:56:27;;;;;;;6.27;4.10;;;14.10;99.90;;;;;;486070;244;28755;-80
2023/07/17 03:58:28;;;;;;;8.57;5.10;;;14.10;99.90;;;;;;486103;244;28702;-80
2023/07/17 04:00:30;;;;;;;5.63;4.30;;;14.20;99.90;;;;;;486127;244;28735;-78
2023/07/17 04:02:31;;;;;;;5.20;3.50;;;14.10;99.90;;;;;;486090;244;28804;-81
2023/07/17 04:04:32;;;;;;;6.87;4.07;;;14.20;99.90;;;;;;486158;244;28787;-78
2023/07/17 04:06:33;;;;;;;5.63;4.47;;;14.20;99.90;;;;;;486188;244;29185;-77
2023/07/17 04:08:35;;;;;;;5.50;4.67;;;14.20;99.90;;;;;;486093;244;28702;-82
2023/07/17 04:10:36;;;;;;;7.17;4.63;;;14.10;99.90;;;;;;486126;244;29334;-79
2023/07/17 04:12:37;;;;;;;8.57;4.73;;;14.10;99.90;;;;;;486147;244;29361;-79
2023/07/17 04:14:38;;;;;;;6.67;4.30;;;14.20;99.90;;;;;;486069;244;28815;-78
2023/07/17 04:16:40;;;;;;;8.50;4.37;;;14.20;99.90;;;;;;486047;244;28805;-80
2023/07/17 04:18:41;;;;;;;8.77;4.70;;;14.30;99.90;;;;;;486036;244;28711;-81
2023/07/17 04:20:42;;;;;;;7.57;4.40;;;14.40;99.90;;;;;;486006;244;28851;-80
2023/07/17 04:22:43;;;;;;;7.03;4.60;;;14.50;99.90;;;;;;486001;244;28698;-82
2023/07/17 04:24:45;;;;;;;5.73;4.00;;;14.50;99.90;;;;;;486023;244;28718;-80
2023/07/17 04:26:46;;;;;;;9.00;4.70;;;14.60;99.90;;;;;;486095;244;28757;-80
2023/07/17 04:28:47;;;;;;;7.80;4.10;;;14.60;99.90;;;;;;486042;244;28854;-79
2023/07/17 04:30:48;;;;;;;6.07;4.20;;;14.80;99.90;;;;;;486039;244;29404;-81
2023/07/17 04:32:50;;;;;;;7.13;4.00;;;14.80;99.90;;;;;;486032;244;30263;-80
2023/07/17 04:34:51;;;;;;;9.27;4.33;;;14.90;99.90;;;;;;486113;244;29260;-79
2023/07/17 04:36:52;;;;;;;6.87;3.93;;;14.90;99.90;;;;;;486107;244;29323;-78
2023/07/17 04:38:53;;;;;;;6.17;4.20;;;15.00;99.90;;;;;;486028;244;28794;-81
2023/07/17 04:40:55;;;;;;;6.90;4.10;;;15.00;99.90;;;;;;486058;244;28725;-79
2023/07/17 04:42:56;;;;;;;5.53;4.00;;;15.10;99.90;;;;;;486050;244;28773;-81
2023/07/17 04:44:57;;;;;;;6.93;4.43;;;15.10;99.90;;;;;;486093;244;28748;-79
2023/07/17 04:46:58;;;;;;;7.23;4.17;;;15.20;99.90;;;;;;486045;244;28758;-79
2023/07/17 04:49:00;;;;;;;6.23;4.17;;;15.20;99.90;;;;;;486027;244;28728;-80
2023/07/17 04:51:01;;;;;;;7.90;4.07;;;15.30;99.90;;;;;;486119;244;28764;-78
2023/07/17 04:53:02;;;;;;;5.60;4.23;;;15.20;99.90;;;;;;486052;244;28789;-81
2023/07/17 04:55:03;;;;;;;6.30;4.03;;;15.30;99.90;;;;;;486067;244;28722;-81
2023/07/17 04:57:05;;;;;;;10.47;4.53;;;15.40;99.90;;;;;;486043;244;29212;-79
2023/07/17 04:59:06;;;;;;;11.13;5.10;;;15.30;99.90;;;;;;486047;244;29186;-81
2023/07/17 05:01:07;;;;;;;13.60;5.60;;;15.40;99.90;;;;;;486037;244;29328;-79
2023/07/17 05:03:08;;;;;;;7.70;4.07;;;15.40;99.90;;;;;;486070;244;28739;-81
2023/07/17 05:05:10;;;;;;;5.67;4.10;;;15.50;99.90;;;;;;486069;244;28832;-79
2023/07/17 05:07:11;;;;;;;6.23;4.57;;;15.60;99.90;;;;;;486037;244;28773;-80
2023/07/17 05:09:12;;;;;;;7.00;4.77;;;15.60;99.90;;;;;;486052;244;28783;-80
2023/07/17 05:11:13;;;;;;;8.83;4.50;;;15.70;99.90;;;;;;486057;244;28758;-81
2023/07/17 05:13:15;;;;;;;7.77;4.90;;;15.80;99.90;;;;;;486085;244;29144;-79
2023/07/17 05:15:16;;;;;;;7.03;4.23;;;15.80;99.90;;;;;;486056;244;28791;-82
2023/07/17 05:17:17;;;;;;;7.37;4.40;;;16.00;99.90;;;;;;486087;244;28828;-79
2023/07/17 05:19:18;;;;;;;7.63;4.50;;;16.10;99.90;;;;;;486074;244;28710;-82
2023/07/17 05:21:20;;;;;;;4.03;3.43;;;16.10;99.90;;;;;;486080;244;29229;-78
2023/07/17 05:23:21;;;;;;;8.40;4.10;;;16.20;99.90;;;;;;486124;244;29320;-78
2023/07/17 05:25:22;;;;;;;9.20;4.17;;;16.30;99.90;;;;;;486114;244;29191;-79
2023/07/17 05:27:23;;;;;;;6.83;4.00;;;16.30;99.90;;;;;;486108;244;28786;-79
2023/07/17 05:29:25;;;;;;;6.47;4.33;;;16.30;99.90;;;;;;486132;244;28758;-80
2023/07/17 05:31:26;;;;;;;11.33;3.80;;;16.40;99.90;;;;;;486104;243;28841;-80
2023/07/17 05:33:27;;;;;;;7.40;4.37;;;16.40;99.90;;;;;;486123;244;28833;-82
2023/07/17 05:35:28;;;;;;;9.00;4.33;;;16.50;99.90;;;;;;486112;244;28715;-82
2023/07/17 05:37:30;;;;;;;6.07;4.83;;;16.50;99.90;;;;;;486098;244;28789;-80
2023/07/17 05:39:31;;;;;;;7.80;4.30;;;16.50;99.90;;;;;;486080;244;28790;-81
2023/07/17 05:41:33;;;;;;;6.17;4.40;;;16.50;99.90;;;;;;486089;244;28747;-80
2023/07/17 05:43:33;;;;;;;8.37;4.47;;;16.60;99.90;;;;;;486118;244;29244;-81
2023/07/17 05:45:35;;;;;;;6.23;4.70;;;16.70;99.90;;;;;;486080;244;29283;-81
2023/07/17 05:47:36;;;;;;;6.40;4.30;;;16.80;99.90;;;;;;486078;244;29363;-81
2023/07/17 05:49:37;;;;;;;8.47;5.20;;;16.90;99.90;;;;;;486070;244;29223;-81
2023/07/17 05:51:38;;;;;;;6.40;3.93;;;16.90;99.90;;;;;;486097;244;28838;-82
2023/07/17 05:53:40;;;;;;;12.23;5.20;;;16.90;99.90;;;;;;486108;244;28765;-81
2023/07/17 05:55:41;;;;;;;5.50;4.67;;;16.90;99.90;;;;;;486101;244;28800;-81
2023/07/17 05:57:42;;;;;;;9.07;5.13;;;17.00;99.90;;;;;;486110;244;29106;-81
2023/07/17 05:59:43;;;;;;;11.03;4.43;;;17.10;99.90;;;;;;486101;244;28712;-81
2023/07/17 06:01:45;;;;;;;4.20;3.70;;;17.20;99.90;;;;;;486143;244;28737;-81
2023/07/17 06:03:46;;;;;;;7.63;4.60;;;17.30;99.90;;;;;;486138;244;28772;-78
2023/07/17 06:05:47;;;;;;;5.53;3.53;;;17.30;99.90;;;;;;486090;244;28780;-81
2023/07/17 06:07:48;;;;;;;6.70;4.87;;;17.40;99.90;;;;;;486098;244;29290;-81
2023/07/17 06:09:50;;;;;;;6.90;4.43;;;17.40;99.90;;;;;;486142;244;29273;-82
2023/07/17 06:11:51;;;;;;;7.27;4.70;;;17.30;99.90;;;;;;486113;244;29196;-82
2023/07/17 06:13:52;;;;;;;6.30;3.83;;;17.30;99.90;;;;;;486184;244;28822;-79
2023/07/17 06:15:54;;;;;;;5.07;4.33;;;17.50;99.90;;;;;;486173;244;28812;-80
2023/07/17 06:17:55;;;;;;;6.33;4.83;;;17.70;99.90;;;;;;486171;244;28744;-81
2023/07/17 06:19:56;;;;;;;11.80;4.70;;;17.80;99.90;;;;;;486121;244;28760;-82
2023/07/17 06:21:57;;;;;;;9.37;4.97;;;17.80;99.90;;;;;;486181;244;28748;-83
2023/07/17 06:23:59;;;;;;;8.20;5.00;;;17.80;99.90;;;;;;486167;244;28815;-80
2023/07/17 06:26:00;;;;;;;7.00;4.20;;;17.80;99.90;;;;;;486145;244;28730;-82
2023/07/17 06:28:01;;;;;;;5.70;3.87;;;17.90;99.90;;;;;;486137;244;28758;-81
2023/07/17 06:30:02;;;;;;;9.43;5.13;;;18.00;99.90;;;;;;486117;244;28784;-81
2023/07/17 06:32:04;;;;;;;8.20;4.50;;;18.10;99.90;;;;;;486183;244;29300;-80
2023/07/17 06:34:05;;;;;;;6.73;3.93;;;18.30;99.90;;;;;;486191;244;29275;-82
2023/07/17 06:36:06;;;;;;;7.17;4.23;;;18.50;99.90;;;;;;486080;244;29289;-84
2023/07/17 06:38:07;;;;;;;7.03;4.17;;;18.70;99.90;;;;;;486192;244;28778;-81
2023/07/17 06:40:10;;;;;;;5.53;4.57;;;18.80;99.90;;;;;;486126;244;28703;-82
2023/07/17 06:42:10;;;;;;;9.57;4.53;;;18.90;99.90;;;;;;486067;244;28749;-82
2023/07/17 06:44:11;;;;;;;6.00;4.27;;;18.90;99.90;;;;;;486100;244;28739;-80
2023/07/17 06:46:13;;;;;;;6.07;4.20;;;18.90;99.90;;;;;;486143;244;28795;-82
2023/07/17 06:48:14;;;;;;;5.90;4.47;;;18.80;99.90;;;;;;486130;244;28761;-83
2023/07/17 06:50:15;;;;;;;7.73;3.93;;;18.70;99.90;;;;;;486070;244;28761;-82
2023/07/17 06:52:16;;;;;;;10.47;5.23;;;18.60;99.90;;;;;;486170;244;28718;-81
2023/07/17 06:54:17;;;;;;;8.10;3.80;;;18.50;99.90;;;;;;486129;244;28785;-81
2023/07/17 06:56:19;;;;;;;3.97;3.57;;;18.40;99.90;;;;;;486180;244;29279;-82
2023/07/17 06:58:20;;;;;;;7.90;4.33;;;18.40;99.90;;;;;;486084;244;29223;-81
2023/07/17 07:00:21;;;;;;;7.33;4.07;;;18.50;99.90;;;;;;486170;243;30005;-83
2023/07/17 07:02:22;;;;;;;8.83;4.53;;;18.60;99.90;;;;;;486216;244;28703;-81
2023/07/17 07:04:24;;;;;;;10.67;5.10;;;18.70;99.90;;;;;;486185;244;28708;-81
2023/07/17 07:06:25;;;;;;;6.40;4.20;;;18.80;99.90;;;;;;486246;244;28694;-83
2023/07/17 07:08:26;;;;;;;11.63;5.00;;;18.90;99.90;;;;;;486144;244;28778;-81
2023/07/17 07:10:27;;;;;;;14.20;4.60;;;19.10;99.90;;;;;;486128;244;28866;-82
2023/07/17 07:12:29;;;;;;;8.40;4.50;;;19.10;99.90;;;;;;486097;244;28715;-82
2023/07/17 07:14:30;;;;;;;5.77;3.80;;;19.30;99.90;;;;;;486102;244;28759;-81
2023/07/17 07:16:31;;;;;;;14.13;3.77;;;19.60;99.90;;;;;;486166;244;28712;-82
2023/07/17 07:18:32;;;;;;;4.87;3.73;;;19.80;99.90;;;;;;486095;244;29361;-81
2023/07/17 07:20:34;;;;;;;5.00;3.60;;;19.90;99.90;;;;;;486168;244;29295;-82
2023/07/17 07:22:35;;;;;;;4.80;4.00;;;19.90;99.90;;;;;;486152;244;29248;-83
2023/07/17 07:24:36;;;;;;;8.60;4.37;;;19.90;99.90;;;;;;486194;244;28851;-80
2023/07/17 07:26:38;;;;;;;5.83;4.00;;;19.90;99.90;;;;;;486177;244;28734;-82
2023/07/17 07:28:39;;;;;;;4.60;3.30;;;20.00;99.90;;;;;;486195;244;28833;-82
2023/07/17 07:30:40;;;;;;;8.80;4.20;;;19.90;99.90;;;;;;486202;244;28851;-83
2023/07/17 07:32:41;;;;;;;10.07;3.97;;;19.60;99.90;;;;;;486194;244;28787;-83
2023/07/17 07:34:42;;;;;;;7.43;3.57;;;19.50;99.90;;;;;;486216;243;28987;-82
2023/07/17 07:36:44;;;;;;;7.40;3.90;;;19.50;99.90;;;;;;486196;244;28740;-84
2023/07/17 07:38:45;;;;;;;4.40;3.57;;;19.60;99.90;;;;;;486133;244;28822;-81
2023/07/17 07:40:46;;;;;;;9.10;3.67;;;19.60;99.90;;;;;;486208;244;29169;-82
2023/07/17 07:42:48;;;;;;;6.43;4.10;;;19.60;99.90;;;;;;486070;244;29344;-82
2023/07/17 07:44:49;;;;;;;7.27;3.93;;;19.70;99.90;;;;;;486239;244;29235;-81
2023/07/17 07:46:50;;;;;;;4.50;3.40;;;19.70;99.90;;;;;;486165;244;29188;-83
2023/07/17 07:48:51;;;;;;;6.03;3.70;;;19.70;99.90;;;;;;486141;244;28737;-82
2023/07/17 07:50:52;;;;;;;5.23;3.40;;;19.50;99.90;;;;;;486257;244;28768;-82
2023/07/17 07:52:55;;;;;;;5.03;3.00;;;19.50;99.90;;;;;;486233;244;28712;-82
2023/07/17 07:54:55;;;;;;;15.70;4.47;;;19.50;99.90;;;;;;486180;244;28763;-82
2023/07/17 07:56:56;;;;;;;7.73;3.80;;;19.80;99.90;;;;;;486184;244;28726;-81
2023/07/17 07:58:57;;;;;;;8.90;4.47;;;20.00;99.90;;;;;;486212;244;28773;-83
2023/07/17 08:00:59;;;;;;;10.57;4.57;;;20.00;99.90;;;;;;486229;244;28825;-81
2023/07/17 08:03:00;;;;;;;6.77;3.50;;;20.00;99.90;;;;;;486180;244;28798;-82
2023/07/17 08:05:01;;;;;;;8.50;3.80;;;20.20;99.90;;;;;;486183;244;28881;-80
2023/07/17 08:07:03;;;;;;;6.83;3.97;;;20.10;99.90;;;;;;486208;244;29246;-82
2023/07/17 08:09:04;;;;;;;13.40;4.53;;;20.00;99.90;;;;;;486194;244;29166;-82
2023/07/17 08:11:05;;;;;;;8.47;4.20;;;19.90;99.90;;;;;;486219;244;28817;-81
2023/07/17 08:13:06;;;;;;;9.50;4.13;;;19.80;99.90;;;;;;486158;244;28779;-82
2023/07/17 08:15:07;;;;;;;5.97;3.77;;;19.70;99.90;;;;;;486145;244;28817;-82
2023/07/17 08:17:09;;;;;;;6.70;3.60;;;19.70;99.90;;;;;;486221;244;28700;-83
2023/07/17 08:19:12;;;;;;;7.63;4.20;;;19.60;99.90;;;;;;486282;244;28804;-83
2023/07/17 08:21:11;;;;;;;6.60;3.67;;;19.60;99.90;;;;;;486094;244;28778;-82
2023/07/17 08:23:12;;;;;;;7.70;4.20;;;19.70;99.90;;;;;;486152;244;28725;-82
2023/07/17 08:25:14;;;;;;;8.93;3.70;;;19.70;99.90;;;;;;486154;244;28750;-82
2023/07/17 08:27:15;;;;;;;6.50;3.80;;;19.60;99.90;;;;;;486239;242;28748;-80
2023/07/17 08:29:16;;;;;;;12.73;3.67;;;19.60;99.90;;;;;;486170;244;29306;-83
2023/07/17 08:31:17;;;;;;;6.60;3.50;;;19.60;99.90;;;;;;486153;244;29328;-82
2023/07/17 08:33:19;;;;;;;6.27;3.40;;;19.70;99.90;;;;;;486160;244;29215;-82
2023/07/17 08:35:20;;;;;;;7.10;3.70;;;19.80;99.90;;;;;;486161;244;28840;-81
2023/07/17 08:37:21;;;;;;;6.07;3.53;;;19.80;99.90;;;;;;486178;244;28731;-82
2023/07/17 08:39:22;;;;;;;8.00;4.00;;;20.00;99.90;;;;;;486199;244;28725;-82
2023/07/17 08:41:24;;;;;;;6.63;3.47;;;20.10;99.90;;;;;;486194;244;28813;-81
2023/07/17 08:43:25;;;;;;;7.47;3.60;;;20.10;99.90;;;;;;486191;244;28768;-82
2023/07/17 08:45:26;;;;;;;6.60;3.10;;;20.10;99.90;;;;;;486227;244;28749;-82
2023/07/17 08:47:27;;;;;;;6.60;3.33;;;20.20;99.90;;;;;;486247;244;28741;-81
2023/07/17 08:49:29;;;;;;;9.00;3.83;;;20.20;99.90;;;;;;486260;244;28719;-82
2023/07/17 08:51:30;;;;;;;6.03;4.00;;;20.20;99.90;;;;;;486120;244;28760;-82
2023/07/17 08:53:33;;;;;;;6.20;4.20;;;20.20;99.90;;;;;;486199;244;29260;-82
2023/07/17 08:55:32;;;;;;;7.10;4.00;;;20.20;99.90;;;;;;486099;244;29314;-82
2023/07/17 08:57:34;;;;;;;5.67;3.70;;;20.40;99.90;;;;;;486230;244;29407;-82
2023/07/17 08:59:35;;;;;;;15.43;3.23;;;20.40;99.90;;;;;;486278;244;28732;-82
2023/07/17 09:01:36;;;;;;;6.67;3.30;;;20.40;99.90;;;;;;486157;244;28710;-80
2023/07/17 09:03:37;;;;;;;5.60;4.00;;;20.30;99.90;;;;;;486152;244;28745;-82
2023/07/17 09:05:39;;;;;;;5.80;3.50;;;20.30;99.90;;;;;;486137;244;28752;-80
2023/07/17 09:07:40;;;;;;;6.67;3.73;;;20.20;99.90;;;;;;486224;243;28828;-82
2023/07/17 09:09:41;;;;;;;5.80;3.40;;;20.10;99.90;;;;;;486202;244;28820;-82
2023/07/17 09:11:42;;;;;;;12.30;3.70;;;20.10;99.90;;;;;;486203;244;28761;-81
2023/07/17 09:13:47;;;;;;;10.63;3.90;;;20.10;99.90;;;;;;486208;243;28718;-82
2023/07/17 09:15:45;;;;;;;6.30;3.80;;;20.20;99.90;;;;;;485994;243;29267;-82
2023/07/17 09:17:46;;;;;;;5.50;3.50;;;20.30;99.90;;;;;;486212;244;29407;-82
2023/07/17 09:19:47;;;;;;;5.53;3.60;;;20.30;99.90;;;;;;486170;243;29357;-82
2023/07/17 09:21:49;;;;;;;6.57;3.17;;;20.30;99.90;;;;;;486165;244;29369;-81
2023/07/17 09:23:50;;;;;;;6.53;3.60;;;20.20;99.90;;;;;;486115;244;28787;-80
2023/07/17 09:25:54;;;;;;;8.43;4.00;;;20.20;99.90;;;;;;486131;243;28756;-80
2023/07/17 09:27:52;;;;;;;4.00;3.10;;;20.30;99.90;;;;;;486062;244;28794;-83
2023/07/17 09:29:54;;;;;;;10.60;3.67;;;20.30;99.90;;;;;;486239;244;28708;-82
2023/07/17 09:31:57;;;;;;;9.97;3.70;;;20.30;99.90;;;;;;486183;244;28736;-83
2023/07/17 09:33:56;;;;;;;7.60;3.37;;;20.10;99.90;;;;;;486117;244;28793;-83
2023/07/17 09:35:57;;;;;;;5.62;3.33;;;20.20;99.90;;;;;;484576;244;36165;-82
2023/07/17 09:37:59;;;;;;;4.73;3.13;;;20.20;99.90;;;;;;486216;244;27418;-81
2023/07/17 09:40:00;;;;;;;6.00;3.10;;;20.20;99.90;;;;;;486165;244;29256;-83
2023/07/17 09:42:01;;;;;;;7.50;3.33;;;20.30;99.90;;;;;;486207;244;29244;-80
2023/07/17 09:44:05;;;;;;;3.87;2.90;;;20.40;99.90;;;;;;486130;244;29156;-81
2023/07/17 09:46:07;;;;;;;4.47;2.70;;;20.50;99.90;;;;;;486112;244;29896;-84
2023/07/17 09:48:08;;;;;;;5.73;3.10;;;20.50;99.90;;;;;;486094;244;29259;-82
2023/07/17 09:50:09;;;;;;;6.67;3.00;;;20.50;99.90;;;;;;486087;244;28749;-80
2023/07/17 09:52:10;;;;;;;4.17;3.10;;;20.50;99.90;;;;;;486144;244;28690;-83
2023/07/17 09:54:12;;;;;;;5.90;3.57;;;20.60;99.90;;;;;;486098;244;28752;-81
2023/07/17 09:56:13;;;;;;;3.60;2.93;;;20.60;99.90;;;;;;486146;244;28718;-83
2023/07/17 09:58:14;;;;;;;5.27;3.17;;;20.70;99.90;;;;;;486173;244;28795;-81
2023/07/17 10:00:18;;;;;;;6.93;2.70;;;20.90;99.90;;;;;;486213;244;28736;-83
2023/07/17 10:02:18;;;;;;;7.97;3.30;;;20.90;99.90;;;;;;485969;244;28794;-83
2023/07/17 10:04:18;;;;;;;8.97;3.03;;;21.10;99.90;;;;;;486118;244;28865;-82
2023/07/17 10:06:19;;;;;;;7.07;2.60;;;21.20;99.90;;;;;;486202;244;28740;-82
2023/07/17 10:08:20;;;;;;;9.30;3.10;;;21.20;99.90;;;;;;486217;244;29242;-83
2023/07/17 10:10:22;;;;;;;4.07;3.00;;;21.30;99.90;;;;;;486196;244;29247;-80
2023/07/17 10:12:23;;;;;;;8.10;3.30;;;21.30;99.90;;;;;;486232;244;30003;-83
2023/07/17 10:14:26;;;;;;;3.83;2.87;;;21.60;99.90;;;;;;486223;244;28765;-82
2023/07/17 10:16:26;;;;;;;6.20;2.70;;;21.70;99.90;;;;;;485982;244;28737;-82
2023/07/17 10:18:27;;;;;;;4.50;3.20;;;21.90;99.90;;;;;;486176;244;28800;-81
2023/07/17 10:20:28;;;;;;;5.13;2.80;;;22.00;99.90;;;;;;486191;244;28752;-81
2023/07/17 10:22:29;;;;;;;8.63;3.30;;;22.00;99.90;;;;;;486245;244;28713;-83
2023/07/17 10:24:30;;;;;;;4.33;2.80;;;22.10;99.90;;;;;;486178;244;28751;-82
2023/07/17 10:26:32;;;;;;;5.47;2.87;;;22.10;99.90;;;;;;486175;244;28744;-81
2023/07/17 10:28:33;;;;;;;3.60;2.80;;;22.10;99.90;;;;;;486133;244;28740;-81